Emerald, Pennsylvania
Current Conditions -  °F | °C
As of 4:51 PM on Sunday 25 Jan 2015 (Local Time) from KABE Reporting Station
Overcast Overcast  
Wind Chill:   Ceiling: 3900
Heat Index:   Visibility: 10mi
Dew Point: -5°   Wind: 5mph
Humidity: 55%   Direction: 320°NW
Pressure: 29.82"   Gusts: NA
Location:  40.7371°N, 75.6374°W
Report Text: KABE 252151Z 32004KT 10SM OVC039 03/M05 A2982 RMK AO2 SLP102 T00331050
Loading
Personal Weather Stations






























Interactive Weather Map New forecast layout! Learn more

10-Day Weather Forecast

Advertisements
Track Severe Weather on mobile